Time;durP1;ratioP1;P1;durP2;ratioP2;P2;SDS_P1;SDS_P2;PMS_P1;PMS_P2;Temp;Humidity;BMP_temperature;BMP_pressure;BME280_temperature;BME280_humidity;BME280_pressure;Samples;Min_cycle;Max_cycle;Signal;HPM_P1;HPM_P2
2022/04/29 00:00:38;;;;;;;29.70;13.90;;;;;;;8.70;53.75;101195.83;106860;1278;138107;-73
2022/04/29 00:03:12;;;;;;;24.60;13.20;;;;;;;8.69;53.86;101199.13;107720;1266;94793;-73
2022/04/29 00:05:46;;;;;;;26.90;14.10;;;;;;;8.68;53.62;101198.10;106551;1269;137667;-73
2022/04/29 00:08:18;;;;;;;25.90;13.90;;;;;;;8.67;53.83;101200.89;106493;1268;110678;-72
2022/04/29 00:10:50;;;;;;;24.20;13.90;;;;;;;8.65;54.19;101199.52;106469;1269;108821;-72
2022/04/29 00:13:22;;;;;;;28.60;14.70;;;;;;;8.61;54.34;101199.89;106332;1271;139482;-72
2022/04/29 00:15:54;;;;;;;24.10;14.00;;;;;;;8.56;54.21;101197.66;106488;1270;96507;-71
2022/04/29 00:18:27;;;;;;;33.90;14.00;;;;;;;8.53;54.55;101199.96;106383;1270;137589;-72
2022/04/29 00:20:59;;;;;;;26.70;13.30;;;;;;;8.48;54.56;101201.22;106477;1270;111300;-73
2022/04/29 00:23:31;;;;;;;25.00;13.70;;;;;;;8.45;54.71;101201.60;106324;1270;138607;-72
2022/04/29 00:26:03;;;;;;;26.30;13.10;;;;;;;8.42;55.02;101198.30;106433;1270;108440;-73
2022/04/29 00:28:35;;;;;;;22.60;12.60;;;;;;;8.39;55.12;101194.52;106363;1270;97335;-74
2022/04/29 00:31:07;;;;;;;21.50;12.20;;;;;;;8.40;55.00;101195.55;106329;1270;138650;-73
2022/04/29 00:33:40;;;;;;;24.00;12.90;;;;;;;8.43;55.26;101196.21;106452;1270;111225;-74
2022/04/29 00:36:12;;;;;;;21.50;13.00;;;;;;;8.44;55.33;101189.98;106331;1270;138156;-73
2022/04/29 00:38:45;;;;;;;21.30;12.90;;;;;;;8.45;55.27;101188.59;106437;1269;108831;-74
2022/04/29 00:41:20;;;;;;;21.80;13.20;;;;;;;8.44;55.28;101188.27;106306;1270;138574;-72
2022/04/29 00:44:03;;;;;;;23.40;13.10;;;;;;;8.43;55.42;101187.72;106500;1269;96532;-73
2022/04/29 00:46:40;;;;;;;23.00;14.00;;;;;;;8.40;55.45;101187.06;106441;1270;111245;-73
2022/04/29 00:49:12;;;;;;;;;;;;;;;8.36;55.45;101188.66;107822;1269;138170;-73
2022/04/29 00:51:47;;;;;;;21.50;13.10;;;;;;;8.33;55.86;101186.25;106458;1270;108915;-72
2022/04/29 00:54:27;;;;;;;23.10;12.80;;;;;;;8.28;55.94;101188.02;106314;1270;137886;-74
2022/04/29 00:57:01;;;;;;;18.00;12.60;;;;;;;8.26;55.93;101183.52;106486;1269;96516;-72
2022/04/29 00:59:39;;;;;;;18.60;12.70;;;;;;;8.23;56.14;101179.88;106405;1270;138244;-71
2022/04/29 01:02:12;;;;;;;19.20;13.30;;;;;;;8.22;56.16;101176.95;107019;1270;108907;-71
2022/04/29 01:04:49;;;;;;;22.00;12.90;;;;;;;8.18;56.43;101175.42;106273;1270;108380;-72
2022/04/29 01:07:21;;;;;;;20.10;12.90;;;;;;;8.16;56.54;101175.10;106218;1270;137884;-74
2022/04/29 01:09:53;;;;;;;22.00;12.40;;;;;;;8.13;56.78;101176.33;106331;1270;96472;-74
2022/04/29 01:12:27;;;;;;;18.50;12.20;;;;;;;8.11;56.82;101171.67;106186;1270;138323;-74
2022/04/29 01:15:03;;;;;;;18.10;11.80;;;;;;;8.10;57.03;101172.73;106357;1270;109080;-74
2022/04/29 01:17:38;;;;;;;19.10;12.40;;;;;;;8.12;57.08;101170.12;106104;1270;138455;-73
2022/04/29 01:20:13;;;;;;;20.50;12.50;;;;;;;8.13;56.94;101170.79;106934;1270;97805;-73
2022/04/29 01:22:46;;;;;;;18.80;12.30;;;;;;;8.16;56.92;101162.80;106583;1270;96484;-73
2022/04/29 01:25:18;;;;;;;21.20;12.60;;;;;;;8.17;56.88;101163.83;106185;1270;137755;-73
2022/04/29 01:27:54;;;;;;;18.90;13.30;;;;;;;8.15;57.08;101161.41;106329;1270;108598;-73
2022/04/29 01:30:28;;;;;;;20.40;13.30;;;;;;;8.13;57.32;101158.66;106158;1270;138417;-73
2022/04/29 01:33:02;;;;;;;18.50;12.60;;;;;;;8.08;57.41;101154.02;106360;1270;96507;-73
2022/04/29 01:35:34;;;;;;;23.30;12.00;;;;;;;8.03;57.70;101151.27;107725;1270;140116;-73
2022/04/29 01:38:06;;;;;;;18.70;12.40;;;;;;;7.99;57.79;101151.49;107062;1270;110189;-73
2022/04/29 01:40:39;;;;;;;20.70;12.30;;;;;;;7.96;57.99;101151.69;106781;1270;109038;-72
2022/04/29 01:43:17;;;;;;;18.30;11.80;;;;;;;7.92;58.03;101153.63;106190;1270;137792;-73
2022/04/29 01:45:50;;;;;;;19.40;11.20;;;;;;;7.88;58.05;101157.27;106375;1269;96581;-73
2022/04/29 01:48:30;;;;;;;21.50;11.80;;;;;;;7.85;58.01;101156.60;106162;1270;138274;-73
2022/04/29 01:51:17;;;;;;;18.30;11.50;;;;;;;7.86;58.09;101157.80;106295;1270;110762;-73
2022/04/29 01:53:53;;;;;;;18.00;11.40;;;;;;;7.87;58.24;101154.67;106785;1270;138465;-73
2022/04/29 01:56:33;;;;;;;17.80;12.40;;;;;;;7.91;58.34;101149.99;106329;1270;108428;-73
2022/04/29 01:59:08;;;;;;;19.00;11.50;;;;;;;7.93;58.34;101149.98;106183;1270;138029;-67
2022/04/29 02:01:49;;;;;;;19.20;12.20;;;;;;;7.93;58.51;101150.34;106305;1270;96600;-72
2022/04/29 02:04:21;;;;;;;20.00;13.10;;;;;;;7.90;58.32;101152.25;106286;1270;110102;-73
2022/04/29 02:06:54;;;;;;;21.50;12.90;;;;;;;7.87;58.42;101148.27;106266;1270;138917;-72
2022/04/29 02:09:27;;;;;;;23.70;13.40;;;;;;;7.84;58.49;101148.98;106300;1270;106539;-72
2022/04/29 02:12:05;;;;;;;20.00;12.70;;;;;;;7.80;58.68;101148.84;106157;1270;137872;-73
2022/04/29 02:14:58;;;;;;;18.90;13.20;;;;;;;7.76;58.81;101149.23;106273;1270;96813;-73
2022/04/29 02:17:44;;;;;;;21.90;12.90;;;;;;;7.71;58.88;101143.36;106190;1270;137782;-73
2022/04/29 02:20:16;;;;;;;19.00;12.00;;;;;;;7.68;59.03;101145.45;106276;1270;107172;-73
2022/04/29 02:22:48;;;;;;;18.70;11.30;;;;;;;7.66;59.35;101145.98;106202;1270;108290;-73
2022/04/29 02:25:20;;;;;;;19.70;11.70;;;;;;;7.65;59.54;101143.41;106131;1270;138162;-73
2022/04/29 02:27:52;;;;;;;17.30;11.20;;;;;;;7.64;59.53;101139.77;106356;1270;96536;-73
2022/04/29 02:30:25;;;;;;;22.30;12.40;;;;;;;7.63;59.57;101136.14;107798;1270;137842;-74
2022/04/29 02:32:57;;;;;;;18.50;12.10;;;;;;;7.63;59.79;101137.19;107836;1270;108206;-74
2022/04/29 02:35:29;;;;;;;19.10;12.30;;;;;;;7.63;59.76;101134.59;107463;1270;138046;-74
2022/04/29 02:38:01;;;;;;;20.10;12.30;;;;;;;7.62;59.91;101134.94;106193;1270;96487;-73
2022/04/29 02:40:33;;;;;;;16.90;11.90;;;;;;;7.61;59.94;101127.85;106270;1270;96589;-72
2022/04/29 02:43:05;;;;;;;20.80;11.90;;;;;;;7.60;60.16;101128.73;107734;1269;138071;-73
2022/04/29 02:45:38;;;;;;;18.80;10.40;;;;;;;7.60;59.98;101127.17;106916;1270;107158;-73
2022/04/29 02:48:11;;;;;;;18.00;10.80;;;;;;;7.61;59.98;101126.29;106142;1270;138976;-73
2022/04/29 02:50:43;;;;;;;18.20;10.60;;;;;;;7.63;59.84;101128.35;107798;1270;96440;-73
2022/04/29 02:53:17;;;;;;;20.50;10.80;;;;;;;7.69;60.01;101125.36;107786;1268;140264;-73
2022/04/29 02:55:49;;;;;;;13.40;9.40;;;;;;;7.72;60.13;101122.08;107872;1270;110739;-74
2022/04/29 02:58:39;;;;;;;18.70;10.40;;;;;;;7.73;60.09;101122.95;107914;1270;108271;-73
2022/04/29 03:01:12;;;;;;;19.00;10.50;;;;;;;7.75;60.04;101126.90;107591;1270;139430;-73
2022/04/29 03:03:45;;;;;;;15.90;10.60;;;;;;;7.76;60.02;101125.34;107447;1270;94594;-73
2022/04/29 03:06:19;;;;;;;23.00;10.60;;;;;;;7.76;59.99;101123.27;106187;1271;137929;-73
2022/04/29 03:08:51;;;;;;;16.60;10.90;;;;;;;7.77;60.04;101124.63;106322;1270;111363;-73
2022/04/29 03:11:23;;;;;;;19.90;10.70;;;;;;;7.81;59.88;101126.86;107749;1270;138918;-73
2022/04/29 03:13:56;;;;;;;22.70;11.00;;;;;;;7.81;59.89;101127.71;106558;1270;109775;-74
2022/04/29 03:16:28;;;;;;;17.50;10.60;;;;;;;7.82;59.89;101130.14;106267;1270;97034;-74
2022/04/29 03:19:01;;;;;;;18.00;10.20;;;;;;;7.81;59.90;101127.54;106158;1270;137740;-73
2022/04/29 03:21:33;;;;;;;16.80;10.00;;;;;;;7.82;60.01;101130.14;106247;1270;110231;-73
2022/04/29 03:24:07;;;;;;;13.80;9.60;;;;;;;7.82;59.97;101131.52;106162;1271;139999;-73
2022/04/29 03:26:40;;;;;;;17.60;9.30;;;;;;;7.85;60.08;101132.02;107786;1270;107354;-73
2022/04/29 03:29:12;;;;;;;15.40;10.10;;;;;;;7.87;59.94;101126.45;106478;1270;138933;-71
2022/04/29 03:31:44;;;;;;;18.70;10.50;;;;;;;7.89;59.99;101130.08;106596;1271;96478;-73
2022/04/29 03:34:24;;;;;;;18.80;10.80;;;;;;;7.91;60.16;101125.94;106386;1270;110372;-72
2022/04/29 03:36:57;;;;;;;18.50;10.90;;;;;;;7.91;60.39;101122.48;106164;1270;137789;-73
2022/04/29 03:39:29;;;;;;;16.80;10.50;;;;;;;7.89;60.23;101124.70;106290;1271;108859;-73
2022/04/29 03:42:01;;;;;;;17.10;10.60;;;;;;;7.87;60.38;101123.16;106195;1270;137956;-73
2022/04/29 03:44:33;;;;;;;15.90;11.10;;;;;;;7.84;60.20;101125.10;106229;1270;96890;-73
2022/04/29 03:47:06;;;;;;;18.20;11.20;;;;;;;7.82;60.46;101131.01;106383;1270;108802;-73
2022/04/29 03:49:57;;;;;;;18.10;10.90;;;;;;;7.81;60.64;101133.44;106313;1270;108653;-73
2022/04/29 03:52:29;;;;;;;17.20;10.70;;;;;;;7.80;60.69;101133.79;106386;1270;109070;-73
2022/04/29 03:55:02;;;;;;;21.40;9.90;;;;;;;7.80;60.65;101133.96;106237;1270;138550;-73
2022/04/29 03:57:35;;;;;;;17.60;10.50;;;;;;;7.79;60.50;101136.91;106371;1270;96508;-72
2022/04/29 04:00:10;;;;;;;18.10;11.40;;;;;;;7.82;60.61;101140.17;106207;1270;137920;-73
2022/04/29 04:02:47;;;;;;;20.90;10.80;;;;;;;7.84;60.49;101140.67;107874;1270;108850;-73
2022/04/29 04:05:21;;;;;;;17.80;11.40;;;;;;;7.84;60.65;101138.59;107834;1270;106037;-72
2022/04/29 04:07:53;;;;;;;17.30;11.60;;;;;;;7.85;60.68;101136.51;107734;1270;138313;-73
2022/04/29 04:10:41;;;;;;;18.00;11.90;;;;;;;7.89;60.74;101136.15;107853;1270;94597;-72
2022/04/29 04:13:14;;;;;;;22.20;12.50;;;;;;;7.92;60.62;101136.14;107740;1270;138175;-72
2022/04/29 04:16:00;;;;;;;24.10;12.70;;;;;;;7.95;60.65;101140.61;106694;1270;108436;-73
2022/04/29 04:18:32;;;;;;;19.70;12.60;;;;;;;7.95;60.59;101138.02;106183;1270;137976;-74
2022/04/29 04:21:05;;;;;;;20.10;12.80;;;;;;;7.97;60.64;101134.02;106323;1270;96606;-72
2022/04/29 04:23:37;;;;;;;27.40;13.00;;;;;;;7.96;60.48;101135.41;106181;1271;138267;-72
2022/04/29 04:26:10;;;;;;;21.00;12.20;;;;;;;7.97;60.76;101131.59;106378;1270;111546;-73
2022/04/29 04:28:42;;;;;;;21.20;12.60;;;;;;;8.00;60.70;101133.30;106254;1270;108969;-74
2022/04/29 04:31:14;;;;;;;23.40;12.30;;;;;;;8.02;60.59;101135.02;106291;1270;138201;-74
2022/04/29 04:33:54;;;;;;;18.10;12.00;;;;;;;8.05;60.69;101132.73;106388;1270;96922;-72
2022/04/29 04:36:26;;;;;;;20.20;12.90;;;;;;;8.12;60.44;101140.48;106151;1270;138465;-72
2022/04/29 04:39:00;;;;;;;22.10;13.50;;;;;;;8.16;60.40;101138.19;106649;1270;110655;-72
2022/04/29 04:41:32;;;;;;;24.00;13.70;;;;;;;8.22;60.59;101140.23;107886;1270;107887;-72
2022/04/29 04:44:04;;;;;;;19.10;12.80;;;;;;;8.25;60.37;101140.70;106903;1270;139532;-72
2022/04/29 04:46:36;;;;;;;20.30;13.40;;;;;;;8.25;60.29;101141.93;106376;1270;96536;-71
2022/04/29 04:49:35;;;;;;;28.40;13.90;;;;;;;8.23;60.34;101141.59;106684;1270;137713;-72
2022/04/29 04:52:21;;;;;;;26.00;14.50;;;;;;;8.23;60.38;101143.68;106672;1270;109938;-72
2022/04/29 04:54:53;;;;;;;20.80;14.40;;;;;;;8.24;60.40;101144.52;106621;1270;139895;-72
2022/04/29 04:57:26;;;;;;;19.80;13.20;;;;;;;8.26;60.51;101143.14;106912;1270;107890;-73
2022/04/29 04:59:58;;;;;;;25.00;13.40;;;;;;;8.24;60.55;101145.73;107563;1270;138075;-73
2022/04/29 05:02:31;;;;;;;21.40;12.80;;;;;;;8.25;60.51;101147.65;106226;1270;96491;-73
2022/04/29 05:05:26;;;;;;;22.00;12.60;;;;;;;8.29;60.39;101152.48;106646;1270;111043;-73
2022/04/29 05:08:11;;;;;;;22.40;13.30;;;;;;;8.36;60.57;101149.48;107768;1270;138104;-72
2022/04/29 05:10:43;;;;;;;27.30;13.60;;;;;;;8.47;60.59;101148.89;107786;1270;108774;-71
2022/04/29 05:13:15;;;;;;;22.40;14.50;;;;;;;8.56;60.25;101153.13;107649;1270;138667;-74
2022/04/29 05:15:53;;;;;;;26.00;13.50;;;;;;;8.67;60.15;101151.13;106497;1270;96422;-72
2022/04/29 05:18:32;;;;;;;22.70;13.70;;;;;;;8.78;60.01;101154.65;106264;1270;138669;-72
2022/04/29 05:21:16;;;;;;;25.80;15.50;;;;;;;8.92;59.76;101153.63;106539;1270;108824;-72
2022/04/29 05:23:48;;;;;;;28.10;14.80;;;;;;;9.42;59.78;101160.31;106417;1270;108687;-71
2022/04/29 05:26:55;;;;;;;24.20;13.90;;;;;;;10.52;58.50;101151.89;107806;1270;94761;-72
2022/04/29 05:29:42;;;;;;;24.70;14.60;;;;;;;11.57;56.75;101146.52;107193;1270;94575;-73
2022/04/29 05:32:34;;;;;;;20.40;12.40;;;;;;;12.90;55.36;101146.05;106263;1268;137906;-71
2022/04/29 05:35:44;;;;;;;23.10;12.20;;;;;;;14.02;52.83;101142.08;106530;1276;109186;-71
2022/04/29 05:44:22;;;;;;;20.00;12.20;;;;;;;14.03;50.10;101141.67;107757;1270;137932;-72
2022/04/29 05:46:54;;;;;;;17.60;11.90;;;;;;;14.17;50.09;101139.49;106709;1270;109579;-73
2022/04/29 05:49:27;;;;;;;19.80;12.30;;;;;;;14.86;49.33;101143.46;107192;1269;138105;-74
2022/04/29 05:52:01;;;;;;;26.60;13.30;;;;;;;15.00;48.63;101148.53;107839;1270;109138;-73
2022/04/29 05:54:35;;;;;;;24.90;12.30;;;;;;;14.95;48.28;101147.84;107075;1270;138798;-73
2022/04/29 05:57:14;;;;;;;23.80;11.90;;;;;;;14.85;48.03;101144.51;106555;1270;95097;-72
2022/04/29 05:59:47;;;;;;;20.50;11.70;;;;;;;14.73;47.67;101147.92;106657;1270;111110;-73
2022/04/29 06:02:49;;;;;;;16.00;12.10;;;;;;;14.90;47.73;101148.36;106121;1270;137902;-73
2022/04/29 06:05:25;;;;;;;28.10;13.00;;;;;;;15.49;46.98;101140.57;106221;1270;109025;-74
2022/04/29 06:07:58;;;;;;;19.80;11.90;;;;;;;15.82;46.67;101142.14;106104;1271;138051;-80
2022/04/29 06:10:38;;;;;;;23.80;14.20;;;;;;;16.01;45.70;101145.26;106346;1270;96481;-79
2022/04/29 06:13:11;;;;;;;16.60;11.70;;;;;;;15.79;45.58;101149.60;106217;1269;138446;-89
2022/04/29 06:16:10;;;;;;;24.20;11.70;;;;;;;15.50;45.52;101156.33;106368;1270;108921;-83
2022/04/29 06:19:02;;;;;;;25.70;13.20;;;;;;;15.21;45.89;101165.28;106188;1270;139083;-85
2022/04/29 06:21:57;;;;;;;20.20;13.00;;;;;;;15.18;46.41;101168.55;106241;1271;97823;-86
2022/04/29 06:24:29;;;;;;;26.30;12.80;;;;;;;15.19;46.56;101171.69;106236;1270;140272;-83
2022/04/29 06:27:22;;;;;;;26.10;12.10;;;;;;;15.08;46.50;101174.67;106410;1270;112553;-85
2022/04/29 06:29:55;;;;;;;22.50;12.10;;;;;;;15.08;46.82;101179.77;106343;1270;108920;-86
2022/04/29 06:32:28;;;;;;;22.30;12.10;;;;;;;15.05;46.76;101175.66;106827;1271;138831;-86
2022/04/29 06:35:25;;;;;;;20.40;11.60;;;;;;;15.04;46.81;101177.11;106314;1270;98127;-86
2022/04/29 06:37:57;;;;;;;27.70;12.30;;;;;;;14.92;46.75;101175.81;106161;1270;138782;-86
2022/04/29 06:40:58;;;;;;;24.50;12.60;;;;;;;14.77;46.86;101177.20;107270;1270;111487;-85
2022/04/29 06:43:36;;;;;;;21.90;12.50;;;;;;;14.69;47.04;101177.30;106168;1270;138179;-87
2022/04/29 06:46:44;;;;;;;24.10;12.60;;;;;;;14.65;47.20;101175.70;106232;1270;108695;-85
2022/04/29 06:49:48;;;;;;;19.90;12.90;;;;;;;14.65;47.22;101176.38;105937;1270;138221;-85
2022/04/29 06:52:39;;;;;;;17.50;12.50;;;;;;;14.76;47.46;101176.17;106255;1270;97823;-87
2022/04/29 06:55:21;;;;;;;24.70;12.60;;;;;;;15.05;47.09;101178.30;106142;1270;139025;-87
2022/04/29 06:57:53;;;;;;;16.10;11.90;;;;;;;15.17;46.79;101180.33;106312;1271;109448;-88
2022/04/29 07:00:26;;;;;;;14.70;12.00;;;;;;;15.22;46.53;101182.59;106104;1270;109411;-85
2022/04/29 07:03:02;;;;;;;22.80;12.40;;;;;;;15.23;46.06;101183.44;107539;1270;139188;-85
2022/04/29 07:05:37;;;;;;;18.20;12.20;;;;;;;15.21;45.99;101181.56;107704;1270;96157;-86
2022/04/29 07:08:14;;;;;;;17.00;11.90;;;;;;;15.24;45.91;101184.09;107505;1270;138293;-85
2022/04/29 07:11:21;;;;;;;14.50;11.30;;;;;;;15.30;45.65;101187.77;105818;1276;107278;-84
2022/04/29 07:14:06;;;;;;;20.70;12.20;;;;;;;15.30;45.58;101186.17;106123;1270;137272;-85
2022/04/29 07:16:51;;;;;;;18.10;12.20;;;;;;;15.22;45.36;101184.69;106308;1270;97841;-84
2022/04/29 07:19:44;;;;;;;17.00;12.80;;;;;;;15.08;45.30;101184.67;106166;1270;138186;-86
2022/04/29 07:22:31;;;;;;;18.60;12.50;;;;;;;15.02;45.40;101186.11;106370;1271;110238;-84
2022/04/29 07:25:03;;;;;;;19.00;12.30;;;;;;;14.98;45.47;101192.90;107717;1270;138924;-85
2022/04/29 07:27:38;;;;;;;16.90;11.80;;;;;;;14.93;45.43;101191.71;106532;1270;107327;-85
2022/04/29 07:30:12;;;;;;;18.50;12.10;;;;;;;14.91;45.17;101190.73;106141;1270;98653;-84
2022/04/29 07:32:51;;;;;;;15.70;11.50;;;;;;;14.88;45.12;101185.91;106162;1270;138678;-84
2022/04/29 07:41:46;;;;;;;18.60;11.40;;;;;;;15.34;43.93;101183.74;107872;1270;108760;-84
2022/04/29 07:44:20;;;;;;;18.30;11.80;;;;;;;15.42;44.03;101182.73;106498;1270;138340;-84
2022/04/29 07:46:53;;;;;;;21.90;14.90;;;;;;;16.34;43.52;101175.45;106307;1270;97839;-82
2022/04/29 07:49:44;;;;;;;27.10;15.70;;;;;;;17.82;42.16;101169.80;106245;1270;138165;-82
2022/04/29 07:52:20;;;;;;;16.60;10.90;;;;;;;18.62;40.95;101165.35;106314;1271;108556;-82
2022/04/29 07:54:52;;;;;;;13.90;11.00;;;;;;;18.73;39.81;101160.92;106220;1270;138644;-81
2022/04/29 07:57:24;;;;;;;14.80;11.30;;;;;;;18.75;39.96;101162.89;106253;1270;97968;-80
2022/04/29 07:59:58;;;;;;;17.40;11.30;;;;;;;20.00;39.51;101156.30;106268;1270;97823;-80
2022/04/29 08:02:48;;;;;;;21.50;11.30;;;;;;;21.94;37.56;101144.07;106230;1270;139740;-81
2022/04/29 08:05:26;;;;;;;14.10;9.80;;;;;;;23.52;35.57;101139.32;106338;1270;108860;-80
2022/04/29 08:08:00;;;;;;;16.10;10.70;;;;;;;24.97;34.35;101129.12;106212;1270;138028;-82
2022/04/29 08:10:33;;;;;;;11.00;9.30;;;;;;;26.46;32.99;101124.40;106330;1270;97949;-82
2022/04/29 08:13:07;;;;;;;15.60;9.20;;;;;;;27.75;31.49;101118.94;106156;1270;138797;-82
2022/04/29 08:15:58;;;;;;;12.70;8.60;;;;;;;28.99;29.75;101116.73;106377;1270;111351;-82
2022/04/29 08:18:57;;;;;;;16.70;9.90;;;;;;;30.09;28.36;101113.23;107505;1270;139055;-82
2022/04/29 08:21:43;;;;;;;14.20;10.20;;;;;;;30.77;26.70;101113.85;107682;1270;108201;-83
2022/04/29 08:24:15;;;;;;;11.50;8.70;;;;;;;31.13;25.94;101107.88;107647;1271;96260;-82
2022/04/29 08:26:47;;;;;;;11.70;9.20;;;;;;;31.76;25.54;101102.48;107595;1270;137287;-83
2022/04/29 08:29:19;;;;;;;13.30;8.60;;;;;;;32.48;24.92;101096.22;107775;1270;111503;-84
2022/04/29 08:31:51;;;;;;;12.90;9.00;;;;;;;33.00;24.21;101094.09;107725;1270;138890;-84
2022/04/29 08:34:25;;;;;;;15.80;9.00;;;;;;;33.44;23.65;101091.17;106926;1271;108013;-83
2022/04/29 08:36:57;;;;;;;12.20;8.80;;;;;;;33.89;22.70;101088.29;106144;1270;138218;-83
2022/04/29 08:39:29;;;;;;;13.20;8.50;;;;;;;34.19;22.26;101089.00;106324;1270;97709;-83
2022/04/29 08:42:06;;;;;;;12.00;8.30;;;;;;;34.37;22.09;101088.20;106302;1270;113349;-83
2022/04/29 08:44:41;;;;;;;15.80;8.20;;;;;;;34.94;21.88;101091.11;107619;1270;139952;-81
2022/04/29 08:47:45;;;;;;;9.40;8.20;;;;;;;35.47;20.81;101085.73;107450;1270;107545;-82
2022/04/29 08:50:21;;;;;;;12.40;8.60;;;;;;;35.43;20.05;101088.48;107109;1270;138367;-84
2022/04/29 08:52:55;;;;;;;13.30;8.00;;;;;;;34.97;19.78;101086.59;106254;1268;97704;-84
2022/04/29 09:01:16;;;;;;;16.20;8.60;;;;;;;34.82;19.81;101081.31;106342;1270;138475;-82
2022/04/29 09:03:49;;;;;;;12.20;8.40;;;;;;;34.95;19.69;101081.73;107792;1270;96595;-84
2022/04/29 09:06:22;;;;;;;11.70;8.30;;;;;;;34.90;19.70;101080.67;107794;1270;96067;-84
2022/04/29 09:09:07;;;;;;;12.50;8.80;;;;;;;35.16;19.57;101078.59;106186;1271;137613;-83
2022/04/29 09:11:39;;;;;;;32.50;10.80;;;;;;;35.58;19.52;101073.30;106264;1270;108861;-84
2022/04/29 09:14:25;;;;;;;9.80;7.70;;;;;;;35.73;18.87;101069.91;107605;1270;138859;-76
2022/04/29 09:16:57;;;;;;;11.40;7.40;;;;;;;34.99;18.50;101072.80;107018;1270;96683;-83
2022/04/29 09:19:34;;;;;;;14.80;8.20;;;;;;;34.13;17.86;101071.35;106293;1270;137978;-84
2022/04/29 09:22:08;;;;;;;13.00;7.90;;;;;;;32.95;18.11;101068.00;106499;1270;111053;-83
2022/04/29 09:25:03;;;;;;;12.90;8.40;;;;;;;31.59;18.45;101069.60;107738;1270;138597;-82
2022/04/29 09:28:00;;;;;;;12.60;10.20;;;;;;;30.13;19.15;101071.56;106673;1270;108819;-86
2022/04/29 09:31:02;;;;;;;12.40;8.10;;;;;;;28.88;20.08;101069.45;106224;1270;138561;-82
2022/04/29 09:33:57;;;;;;;10.70;8.40;;;;;;;27.57;20.79;101072.36;106979;1270;97705;-82
2022/04/29 09:36:37;;;;;;;16.60;9.70;;;;;;;26.44;21.56;101074.98;106681;1270;112409;-82
2022/04/29 09:42:00;;;;;;;12.50;8.20;;;;;;;24.18;23.11;101074.02;106712;1270;107771;-81
2022/04/29 09:44:33;;;;;;;14.30;8.60;;;;;;;23.30;23.70;101076.52;106768;1270;137978;-81
2022/04/29 09:47:15;;;;;;;12.70;8.50;;;;;;;22.43;24.27;101087.50;107443;1270;95671;-82
2022/04/29 09:49:55;;;;;;;12.20;8.70;;;;;;;21.73;25.07;101082.50;107468;1270;138299;-83
2022/04/29 09:52:30;;;;;;;15.60;9.70;;;;;;;21.11;25.98;101087.10;107767;1270;108069;-83
2022/04/29 09:55:13;;;;;;;14.40;11.20;;;;;;;20.54;26.38;101088.02;107645;1270;138837;-82
2022/04/29 09:57:56;;;;;;;13.10;11.00;;;;;;;19.94;27.47;101087.33;107195;1270;97847;-81
2022/04/29 10:00:29;;;;;;;15.80;10.00;;;;;;;19.55;28.30;101090.08;107864;1270;96320;-81
2022/04/29 10:03:03;;;;;;;19.90;10.00;;;;;;;19.30;28.97;101088.08;107260;1270;138826;-80
2022/04/29 10:05:39;;;;;;;14.10;9.40;;;;;;;19.11;29.72;101092.11;106721;1270;108889;-81
2022/04/29 10:08:12;;;;;;;15.50;9.60;;;;;;;19.01;30.02;101094.95;106939;1270;138142;-81
2022/04/29 10:10:44;;;;;;;12.30;9.20;;;;;;;18.90;30.41;101094.65;107845;1270;96240;-81
2022/04/29 10:13:19;;;;;;;18.30;9.20;;;;;;;18.89;30.65;101094.00;107674;1270;138019;-81
2022/04/29 10:15:58;;;;;;;12.10;8.70;;;;;;;19.14;31.25;101088.09;106936;1271;112464;-81
2022/04/29 10:22:05;;;;;;;13.00;8.50;;;;;;;21.00;30.71;101078.45;107429;1271;109109;-82
2022/04/29 10:24:37;;;;;;;12.90;8.60;;;;;;;21.98;29.81;101072.89;107344;1270;95903;-82
2022/04/29 10:27:11;;;;;;;11.80;8.60;;;;;;;22.96;29.12;101064.51;107735;1270;137614;-83
2022/04/29 10:29:44;;;;;;;14.20;8.70;;;;;;;23.79;28.33;101062.41;107858;1270;111396;-83
2022/04/29 10:32:16;;;;;;;12.50;8.30;;;;;;;24.51;27.23;101060.36;107779;1270;139074;-83
2022/04/29 10:34:49;;;;;;;12.00;7.90;;;;;;;25.08;26.42;101051.41;107894;1270;107353;-83
2022/04/29 10:37:36;;;;;;;10.60;8.10;;;;;;;25.29;25.87;101050.70;107653;1270;138496;-83
2022/04/29 10:40:13;;;;;;;10.40;7.20;;;;;;;25.17;25.54;101050.89;107343;1270;97808;-81
2022/04/29 10:43:07;;;;;;;11.00;8.00;;;;;;;24.98;25.23;101047.05;106415;1271;138927;-75
2022/04/29 10:46:20;;;;;;;19.50;8.70;;;;;;;24.63;25.12;101049.60;106496;1270;108841;-81
2022/04/29 10:49:23;;;;;;;11.50;7.80;;;;;;;24.71;25.09;101045.45;107480;1271;139119;-83
2022/04/29 10:52:28;;;;;;;10.90;7.40;;;;;;;24.98;25.05;101042.91;106428;1271;97824;-82
2022/04/29 10:55:22;;;;;;;10.40;7.30;;;;;;;25.16;25.38;101044.14;106455;1270;138004;-81
2022/04/29 10:58:20;;;;;;;9.90;6.90;;;;;;;25.07;25.05;101040.60;107886;1270;111285;-82
2022/04/29 11:01:27;;;;;;;15.70;7.60;;;;;;;24.75;24.89;101041.24;106349;1270;138122;-81
2022/04/29 11:04:00;;;;;;;13.00;7.80;;;;;;;24.19;25.03;101040.77;106347;1270;107260;-82
2022/04/29 11:06:40;;;;;;;15.40;7.30;;;;;;;23.67;24.86;101042.24;107135;1270;97833;-82
2022/04/29 11:09:30;;;;;;;9.40;7.10;;;;;;;22.91;25.30;101049.47;107220;1270;599848;-83
2022/04/29 11:12:02;;;;;;;10.70;6.60;;;;;;;22.38;25.72;101052.15;107723;1270;112362;-83
2022/04/29 11:15:19;;;;;;;8.40;6.50;;;;;;;22.42;26.07;101047.42;107719;1270;137936;-82
2022/04/29 11:18:19;;;;;;;9.70;6.70;;;;;;;22.28;25.99;101041.96;107839;1270;108879;-82
2022/04/29 11:20:56;;;;;;;10.10;6.70;;;;;;;22.09;26.35;101038.83;107762;1270;137787;-82
2022/04/29 11:26:21;;;;;;;11.20;6.40;;;;;;;21.47;26.53;101032.52;107426;1270;137796;-83
2022/04/29 11:28:57;;;;;;;8.20;5.90;;;;;;;21.22;26.35;101034.44;106533;1271;109862;-81
2022/04/29 11:31:35;;;;;;;13.00;6.40;;;;;;;21.04;26.41;101034.67;107718;1270;138798;-83
2022/04/29 11:34:10;;;;;;;9.40;6.20;;;;;;;20.85;26.50;101032.05;107045;1271;97851;-82
2022/04/29 11:36:44;;;;;;;10.30;6.70;;;;;;;20.78;26.98;101032.28;106749;1270;98069;-80
2022/04/29 11:39:20;;;;;;;9.60;6.10;;;;;;;20.72;27.39;101032.85;107760;1270;139026;-76
2022/04/29 11:41:56;;;;;;;10.00;6.40;;;;;;;20.63;27.29;101027.05;107871;1271;109256;-78
2022/04/29 11:44:38;;;;;;;;;;;;;;;20.51;27.51;101027.94;107081;1271;138124;-80
2022/04/29 11:47:12;;;;;;;7.70;5.40;;;;;;;20.55;27.56;101025.44;106191;1271;97884;-81
2022/04/29 11:49:47;;;;;;;7.50;5.20;;;;;;;20.71;27.44;101024.77;107694;1270;140178;-80
2022/04/29 11:52:26;;;;;;;5.60;4.20;;;;;;;20.92;26.44;101016.75;107841;1271;112586;-80
2022/04/29 11:55:00;;;;;;;8.90;4.30;;;;;;;21.03;26.11;101014.42;106365;1271;137003;-79
2022/04/29 11:57:34;;;;;;;5.80;4.40;;;;;;;21.18;25.78;101013.84;106174;1272;108780;-80
2022/04/29 12:00:09;;;;;;;7.40;4.00;;;;;;;21.36;26.01;101008.66;107350;1271;97735;-81
2022/04/29 12:02:47;;;;;;;9.20;4.10;;;;;;;21.77;25.60;101011.25;107666;1271;138139;-83
2022/04/29 12:05:25;;;;;;;4.40;3.30;;;;;;;22.01;25.21;101010.86;107647;1271;111097;-78
2022/04/29 12:08:02;;;;;;;7.40;4.10;;;;;;;22.07;24.75;101009.23;107045;1271;138397;-81
2022/04/29 12:10:42;;;;;;;6.60;3.80;;;;;;;22.05;24.41;101010.80;107760;1271;109278;-80
2022/04/29 12:13:17;;;;;;;7.30;3.80;;;;;;;22.07;24.19;101010.68;107695;1271;139856;-81
2022/04/29 12:15:56;;;;;;;4.60;3.40;;;;;;;22.02;24.18;101001.60;107756;1270;96830;-81
2022/04/29 12:18:44;;;;;;;4.30;3.30;;;;;;;21.89;24.23;101001.23;107853;1271;111333;-81